createdAt,value
2022-10-28T00:01:25.205Z,12.12
2022-10-28T00:03:55.969Z,12.13
2022-10-28T00:06:35.658Z,12.18
2022-10-28T00:09:05.693Z,12.12
2022-10-28T00:11:35.425Z,12.06
2022-10-28T00:14:06.592Z,12.08
2022-10-28T00:16:43.476Z,12.13
2022-10-28T00:19:12.504Z,12.20
2022-10-28T00:21:41.736Z,12.14
2022-10-28T00:24:10.936Z,12.18
2022-10-28T00:26:41.310Z,12.11
2022-10-28T00:29:15.892Z,12.11
2022-10-28T00:31:43.634Z,12.17
2022-10-28T00:34:15.171Z,12.05
2022-10-28T00:36:44.689Z,12.00
2022-10-28T00:39:20.561Z,11.92
2022-10-28T00:41:57.907Z,11.91
2022-10-28T00:44:59.431Z,11.99
2022-10-28T00:47:55.617Z,12.08
2022-10-28T00:50:49.309Z,11.99
2022-10-28T00:53:25.175Z,12.06
2022-10-28T00:55:52.839Z,12.18
2022-10-28T00:58:22.779Z,12.30
2022-10-28T01:00:49.224Z,12.34
2022-10-28T01:03:16.401Z,12.39
2022-10-28T01:05:47.462Z,12.43
2022-10-28T01:08:14.523Z,12.46
2022-10-28T01:11:21.059Z,12.46
2022-10-28T01:14:09.136Z,12.39
2022-10-28T01:17:14.106Z,12.39
2022-10-28T01:20:19.559Z,12.37
2022-10-28T01:23:11.962Z,12.43
2022-10-28T01:26:36.529Z,12.48
2022-10-28T01:29:48.157Z,12.40
2022-10-28T01:32:38.968Z,12.46
2022-10-28T01:35:23.833Z,12.52
2022-10-28T01:38:08.401Z,12.65
2022-10-28T01:40:52.486Z,12.65
2022-10-28T01:44:16.942Z,12.58
2022-10-28T01:47:14.310Z,12.54
2022-10-28T01:49:51.475Z,12.57
2022-10-28T01:52:24.930Z,12.67
2022-10-28T01:55:01.779Z,12.67
2022-10-28T01:57:31.884Z,12.64
2022-10-28T02:00:01.265Z,12.59
2022-10-28T02:02:34.481Z,12.51
2022-10-28T02:05:43.639Z,12.50
2022-10-28T02:08:18.722Z,12.46
2022-10-28T02:11:21.474Z,12.42
2022-10-28T02:14:18.098Z,12.34
2022-10-28T02:17:09.145Z,12.30
2022-10-28T02:20:14.642Z,12.24
2022-10-28T02:22:52.579Z,12.31
2022-10-28T02:25:26.023Z,12.42
2022-10-28T02:28:07.390Z,12.46
2022-10-28T02:30:53.947Z,12.50
2022-10-28T02:33:28.639Z,12.46
2022-10-28T02:36:04.148Z,12.36
2022-10-28T02:38:49.301Z,12.36
2022-10-28T02:41:23.593Z,12.44
2022-10-28T02:43:57.761Z,12.42
2022-10-28T02:46:29.630Z,12.34
2022-10-28T02:49:03.182Z,12.36
2022-10-28T02:51:38.422Z,12.39
2022-10-28T02:54:14.955Z,12.44
2022-10-28T02:56:49.787Z,12.21
2022-10-28T02:59:16.273Z,12.54
2022-10-28T03:01:42.810Z,12.77
2022-10-28T03:04:09.344Z,12.80
2022-10-28T03:06:35.803Z,12.75
2022-10-28T03:09:02.257Z,12.64
2022-10-28T03:11:28.785Z,12.70
2022-10-28T03:13:55.347Z,12.76
2022-10-28T03:16:21.847Z,12.65
2022-10-28T03:18:48.649Z,12.71
2022-10-28T03:21:15.099Z,12.74
2022-10-28T03:23:41.535Z,12.82
2022-10-28T03:26:07.991Z,12.82
2022-10-28T03:28:34.447Z,12.81
2022-10-28T03:31:00.917Z,12.83
2022-10-28T03:33:27.422Z,12.80
2022-10-28T03:35:54.451Z,12.86
2022-10-28T03:38:20.911Z,12.86
2022-10-28T03:40:49.070Z,12.89
2022-10-28T03:43:16.323Z,12.88
2022-10-28T03:45:42.918Z,12.88
2022-10-28T03:48:09.444Z,12.93
2022-10-28T03:50:36.139Z,12.91
2022-10-28T03:53:02.682Z,12.85
2022-10-28T03:55:29.170Z,12.91
2022-10-28T03:57:55.877Z,12.87
2022-10-28T04:00:22.590Z,12.83
2022-10-28T04:02:53.439Z,12.86
2022-10-28T04:05:21.243Z,12.78
2022-10-28T04:07:47.981Z,12.68
2022-10-28T04:10:14.767Z,12.68
2022-10-28T04:12:41.236Z,12.73
2022-10-28T04:15:08.035Z,12.72
2022-10-28T04:17:35.134Z,12.62
2022-10-28T04:20:01.626Z,12.51
2022-10-28T04:22:28.061Z,12.49
2022-10-28T04:24:54.606Z,12.45
2022-10-28T04:27:21.736Z,12.43
2022-10-28T04:29:48.216Z,12.38
2022-10-28T04:32:14.689Z,12.34
2022-10-28T04:34:41.135Z,12.30
2022-10-28T04:37:07.621Z,12.19
2022-10-28T04:39:34.098Z,12.14
2022-10-28T04:42:00.763Z,12.16
2022-10-28T04:44:27.196Z,12.16
2022-10-28T04:46:56.798Z,12.20
2022-10-28T04:49:23.318Z,12.22
2022-10-28T04:51:49.779Z,12.19
2022-10-28T04:54:16.367Z,12.14
2022-10-28T04:56:42.843Z,11.98
2022-10-28T04:59:09.296Z,11.98
2022-10-28T05:01:36.721Z,12.07
2022-10-28T05:04:03.538Z,12.10
2022-10-28T05:06:29.988Z,12.09
2022-10-28T05:08:56.611Z,12.07
2022-10-28T05:11:23.065Z,12.01
2022-10-28T05:13:49.568Z,11.97
2022-10-28T05:16:16.051Z,11.95
2022-10-28T05:18:42.483Z,12.01
2022-10-28T05:21:08.946Z,12.00
2022-10-28T05:23:35.447Z,12.03
2022-10-28T05:26:01.972Z,12.08
2022-10-28T05:28:28.568Z,12.05
2022-10-28T05:30:55.062Z,12.08
2022-10-28T05:33:22.183Z,12.13
2022-10-28T05:35:48.807Z,12.16
2022-10-28T05:38:15.347Z,12.24
2022-10-28T05:40:42.226Z,12.28
2022-10-28T05:43:10.704Z,12.29
2022-10-28T05:45:37.613Z,12.25
2022-10-28T05:48:04.450Z,12.28
2022-10-28T05:50:30.948Z,12.14
2022-10-28T05:52:57.759Z,11.94
2022-10-28T05:55:29.417Z,11.88
2022-10-28T05:57:57.302Z,11.95
2022-10-28T06:00:26.984Z,12.00
2022-10-28T06:03:09.099Z,12.12
2022-10-28T06:05:44.828Z,12.13
2022-10-28T06:08:13.122Z,12.08
2022-10-28T06:10:40.892Z,12.08
2022-10-28T06:13:07.463Z,12.03
2022-10-28T06:15:33.985Z,12.02
2022-10-28T06:18:00.457Z,12.05
2022-10-28T06:20:26.920Z,12.09
2022-10-28T06:22:55.519Z,12.10
2022-10-28T06:25:25.232Z,12.08
2022-10-28T06:27:58.010Z,12.03
2022-10-28T06:30:26.460Z,12.00
2022-10-28T06:32:56.781Z,11.94
2022-10-28T06:35:23.468Z,12.07
2022-10-28T06:37:57.013Z,12.05
2022-10-28T06:40:25.297Z,12.09
2022-10-28T06:43:00.672Z,12.09
2022-10-28T06:45:29.054Z,12.20
2022-10-28T06:47:59.017Z,12.31
2022-10-28T06:50:26.909Z,12.30
2022-10-28T06:52:58.528Z,12.22
2022-10-28T06:55:27.000Z,12.24
2022-10-28T06:57:53.985Z,12.20
2022-10-28T07:00:20.859Z,12.24
2022-10-28T07:02:53.444Z,12.25
2022-10-28T07:05:21.756Z,12.31
2022-10-28T07:07:48.298Z,12.30
2022-10-28T07:10:14.987Z,12.32
2022-10-28T07:12:41.431Z,12.22
2022-10-28T07:15:09.472Z,12.20
2022-10-28T07:17:35.906Z,12.22
2022-10-28T07:20:02.500Z,12.29
2022-10-28T07:22:29.003Z,12.34
2022-10-28T07:24:55.488Z,12.47
2022-10-28T07:27:22.000Z,12.55
2022-10-28T07:29:48.463Z,12.53
2022-10-28T07:32:15.203Z,12.58
2022-10-28T07:34:41.665Z,12.67
2022-10-28T07:37:08.182Z,12.79
2022-10-28T07:39:34.635Z,12.91
2022-10-28T07:42:01.374Z,13.02
2022-10-28T07:44:28.021Z,13.15
2022-10-28T07:46:57.259Z,13.28
2022-10-28T07:49:25.240Z,13.35
2022-10-28T07:51:51.713Z,13.45
2022-10-28T07:54:18.213Z,13.47
2022-10-28T07:56:45.737Z,13.41
2022-10-28T07:59:12.183Z,13.38
2022-10-28T08:01:38.737Z,13.33
2022-10-28T08:04:05.477Z,13.36
2022-10-28T08:06:34.257Z,13.42
2022-10-28T08:09:00.774Z,13.49
2022-10-28T08:11:27.331Z,13.46
2022-10-28T08:13:55.191Z,13.56
2022-10-28T08:16:22.094Z,13.64
2022-10-28T08:18:48.778Z,13.65
2022-10-28T08:21:15.665Z,13.76
2022-10-28T08:23:46.364Z,13.84
2022-10-28T08:26:15.218Z,13.91
2022-10-28T08:28:42.936Z,13.94
2022-10-28T08:31:12.111Z,14.01
2022-10-28T08:33:42.577Z,14.08
2022-10-28T08:36:12.098Z,14.20
2022-10-28T08:38:42.908Z,14.25
2022-10-28T08:41:33.203Z,14.30
2022-10-28T08:44:30.845Z,14.42
2022-10-28T08:47:25.366Z,14.46
2022-10-28T08:50:02.379Z,14.63
2022-10-28T08:52:50.522Z,14.72
2022-10-28T08:55:26.700Z,14.82
2022-10-28T08:57:58.966Z,14.99
2022-10-28T09:00:32.537Z,15.13
2022-10-28T09:03:11.148Z,15.30
2022-10-28T09:05:41.026Z,15.48
2022-10-28T09:08:23.668Z,15.59
2022-10-28T09:11:39.953Z,15.60
2022-10-28T09:14:21.775Z,15.73
2022-10-28T09:17:16.341Z,15.73
2022-10-28T09:20:07.279Z,15.80
2022-10-28T09:22:56.978Z,15.89
2022-10-28T09:25:41.183Z,15.96
2022-10-28T09:28:46.322Z,15.97
2022-10-28T09:31:58.058Z,15.97
2022-10-28T09:34:51.367Z,15.91
2022-10-28T09:37:38.855Z,15.89
2022-10-28T09:40:16.069Z,15.94
2022-10-28T09:43:20.471Z,15.90
2022-10-28T09:45:51.936Z,15.98
2022-10-28T09:48:29.160Z,15.99
2022-10-28T09:50:58.534Z,16.07
2022-10-28T09:54:13.585Z,16.05
2022-10-28T09:56:40.985Z,16.14
2022-10-28T09:59:13.485Z,16.20
2022-10-28T10:01:42.820Z,16.23
2022-10-28T10:04:31.268Z,16.20
2022-10-28T10:07:12.803Z,16.28
2022-10-28T10:09:39.979Z,16.36
2022-10-28T10:12:09.808Z,16.38
2022-10-28T10:14:51.833Z,16.37
2022-10-28T10:17:26.925Z,16.46
2022-10-28T10:20:07.911Z,16.52
2022-10-28T10:22:48.060Z,16.57
2022-10-28T10:25:20.388Z,16.62
2022-10-28T10:28:01.964Z,16.67
2022-10-28T10:30:39.694Z,16.67
2022-10-28T10:33:22.005Z,16.70
2022-10-28T10:36:04.649Z,16.66
2022-10-28T10:38:32.100Z,16.71
2022-10-28T10:40:58.694Z,16.87
2022-10-28T10:43:33.580Z,16.94
2022-10-28T10:46:04.673Z,16.98
2022-10-28T10:48:35.945Z,17.01
2022-10-28T10:51:21.914Z,17.00
2022-10-28T10:53:51.826Z,17.14
2022-10-28T10:56:45.001Z,17.18
2022-10-28T10:59:26.673Z,17.24
2022-10-28T11:01:56.019Z,17.36
2022-10-28T11:04:26.930Z,17.42
2022-10-28T11:06:57.702Z,17.47
2022-10-28T11:09:38.361Z,17.59
2022-10-28T11:12:37.203Z,17.63
2022-10-28T11:15:30.590Z,17.71
2022-10-28T11:18:08.840Z,17.88
2022-10-28T11:20:57.360Z,17.94
2022-10-28T11:24:01.034Z,18.06
2022-10-28T11:26:28.626Z,18.22
2022-10-28T11:29:13.800Z,18.27
2022-10-28T11:32:12.719Z,18.36
2022-10-28T11:35:03.487Z,18.44
2022-10-28T11:37:50.071Z,18.57
2022-10-28T11:40:32.184Z,18.61
2022-10-28T11:43:54.859Z,18.67
2022-10-28T11:47:04.197Z,18.72
2022-10-28T11:50:15.335Z,18.79
2022-10-28T11:53:05.136Z,18.85
2022-10-28T11:55:59.457Z,18.85
2022-10-28T11:59:06.240Z,18.95
2022-10-28T12:01:58.908Z,19.05
2022-10-28T12:04:55.575Z,19.21
2022-10-28T12:07:48.253Z,19.33
2022-10-28T12:10:48.276Z,19.52
2022-10-28T12:13:43.661Z,19.59
2022-10-28T12:16:26.801Z,19.68
2022-10-28T12:19:04.742Z,19.71
2022-10-28T12:21:43.778Z,19.70
2022-10-28T12:24:24.146Z,19.54
2022-10-28T12:27:00.088Z,19.59
2022-10-28T12:29:37.181Z,19.56
2022-10-28T12:32:29.450Z,19.59
2022-10-28T12:35:15.751Z,19.44
2022-10-28T12:37:56.450Z,19.42
2022-10-28T12:40:35.425Z,19.46
2022-10-28T12:43:14.762Z,19.55
2022-10-28T12:45:43.525Z,19.59
2022-10-28T12:48:39.085Z,19.60
2022-10-28T12:51:31.127Z,19.62
2022-10-28T12:54:25.345Z,19.61
2022-10-28T12:57:14.056Z,19.59
2022-10-28T12:59:47.966Z,19.64
2022-10-28T13:02:29.294Z,19.70
2022-10-28T13:04:58.512Z,19.78
2022-10-28T13:07:57.698Z,19.80
2022-10-28T13:10:46.375Z,19.75
2022-10-28T13:13:29.334Z,19.74
2022-10-28T13:16:53.628Z,19.70
2022-10-28T13:19:35.057Z,19.73
2022-10-28T13:22:21.389Z,19.79
2022-10-28T13:25:15.366Z,19.80
2022-10-28T13:27:42.100Z,19.83
2022-10-28T13:30:18.329Z,19.80
2022-10-28T13:32:45.557Z,19.54
2022-10-28T13:35:23.990Z,19.71
2022-10-28T13:37:54.570Z,19.79
2022-10-28T13:40:42.582Z,19.83
2022-10-28T13:43:49.917Z,19.75
2022-10-28T13:46:57.101Z,19.77
2022-10-28T13:49:35.650Z,19.79
2022-10-28T13:52:07.770Z,19.80
2022-10-28T13:54:43.289Z,19.78
2022-10-28T13:57:38.814Z,19.72
2022-10-28T14:03:02.653Z,19.68
2022-10-28T14:05:38.111Z,19.61
2022-10-28T14:08:22.250Z,19.62
2022-10-28T14:11:02.911Z,19.63
2022-10-28T14:13:35.472Z,19.70
2022-10-28T14:16:32.947Z,19.69
2022-10-28T14:19:04.102Z,19.77
2022-10-28T14:22:06.565Z,19.74
2022-10-28T14:24:40.550Z,19.80
2022-10-28T14:27:07.853Z,19.87
2022-10-28T14:30:17.816Z,19.82
2022-10-28T14:32:49.978Z,19.84
2022-10-28T14:35:23.197Z,19.83
2022-10-28T14:38:46.034Z,19.74
2022-10-28T14:41:34.861Z,19.73
2022-10-28T14:44:11.885Z,19.75
2022-10-28T14:47:15.687Z,19.69
2022-10-28T14:49:58.319Z,19.70
2022-10-28T14:52:27.946Z,19.70
2022-10-28T14:54:59.574Z,19.70
2022-10-28T14:57:35.083Z,19.66
2022-10-28T15:00:07.614Z,19.54
2022-10-28T15:02:37.660Z,19.41
2022-10-28T15:05:17.345Z,19.33
2022-10-28T15:07:44.314Z,19.38
2022-10-28T15:10:29.659Z,19.34
2022-10-28T15:12:58.694Z,19.34
2022-10-28T15:15:29.212Z,19.37
2022-10-28T15:17:56.874Z,19.39
2022-10-28T15:20:31.737Z,19.27
2022-10-28T15:23:17.785Z,19.19
2022-10-28T15:25:44.598Z,19.08
2022-10-28T15:28:12.772Z,19.01
2022-10-28T15:30:46.272Z,18.91
2022-10-28T15:33:28.280Z,18.81
2022-10-28T15:36:17.513Z,18.62
2022-10-28T15:39:04.184Z,18.66
2022-10-28T15:41:52.447Z,18.57
2022-10-28T15:44:31.368Z,18.41
2022-10-28T15:47:00.213Z,18.40
2022-10-28T15:49:40.930Z,18.33
2022-10-28T15:52:16.154Z,18.17
2022-10-28T15:54:54.703Z,18.22
2022-10-28T15:57:28.892Z,18.13
2022-10-28T16:00:18.082Z,17.99
2022-10-28T16:03:10.066Z,18.00
2022-10-28T16:05:36.846Z,17.93
2022-10-28T16:08:07.601Z,17.75
2022-10-28T16:10:42.690Z,17.76
2022-10-28T16:13:35.208Z,17.72
2022-10-28T16:16:09.910Z,17.57
2022-10-28T16:18:47.972Z,17.44
2022-10-28T16:21:21.967Z,17.39
2022-10-28T16:23:56.318Z,17.33
2022-10-28T16:26:23.463Z,17.28
2022-10-28T16:28:49.976Z,17.26
2022-10-28T16:31:19.757Z,17.23
2022-10-28T16:33:46.548Z,17.11
2022-10-28T16:36:13.300Z,17.07
2022-10-28T16:38:40.376Z,17.08
2022-10-28T16:41:16.291Z,17.03
2022-10-28T16:43:43.041Z,16.96
2022-10-28T16:46:12.867Z,16.95
2022-10-28T16:48:39.669Z,16.98
2022-10-28T16:51:14.777Z,16.88
2022-10-28T16:53:46.766Z,16.88
2022-10-28T16:56:17.323Z,16.82
2022-10-28T16:58:44.305Z,16.73
2022-10-28T17:01:11.914Z,16.59
2022-10-28T17:03:38.488Z,16.59
2022-10-28T17:06:05.138Z,16.56
2022-10-28T17:09:00.545Z,16.50
2022-10-28T17:11:18.199Z,16.43
2022-10-28T17:13:44.655Z,16.38
2022-10-28T17:16:12.719Z,16.25
2022-10-28T17:18:39.190Z,16.26
2022-10-28T17:21:06.125Z,16.30
2022-10-28T17:23:32.555Z,16.23
2022-10-28T17:26:01.079Z,16.21
2022-10-28T17:28:28.280Z,16.19
2022-10-28T17:31:06.089Z,16.09
2022-10-28T17:33:33.411Z,15.92
2022-10-28T17:36:06.136Z,15.81
2022-10-28T17:38:32.640Z,15.80
2022-10-28T17:40:59.222Z,15.81
2022-10-28T17:43:25.767Z,15.80
2022-10-28T17:45:52.522Z,15.86
2022-10-28T17:48:19.038Z,15.92
2022-10-28T17:50:54.421Z,15.82
2022-10-28T17:53:21.974Z,15.63
2022-10-28T17:55:58.945Z,15.48
2022-10-28T17:58:25.890Z,15.47
2022-10-28T18:01:07.985Z,15.30
2022-10-28T18:03:38.279Z,15.34
2022-10-28T18:06:09.862Z,15.30
2022-10-28T18:08:40.237Z,15.15
2022-10-28T18:11:09.489Z,15.17
2022-10-28T18:13:40.298Z,15.23
2022-10-28T18:16:13.920Z,15.17
2022-10-28T18:18:42.710Z,15.01
2022-10-28T18:21:11.351Z,14.90
2022-10-28T18:23:38.516Z,14.85
2022-10-28T18:26:14.919Z,14.74
2022-10-28T18:28:42.692Z,14.32
2022-10-28T18:31:17.749Z,14.44
2022-10-28T18:33:45.734Z,14.58
2022-10-28T18:36:16.187Z,14.71
2022-10-28T18:38:43.144Z,14.82
2022-10-28T18:41:22.380Z,14.77
2022-10-28T18:43:57.151Z,14.67
2022-10-28T18:46:23.931Z,14.71
2022-10-28T18:48:50.459Z,14.74
2022-10-28T18:51:17.736Z,14.63
2022-10-28T18:53:48.186Z,14.54
2022-10-28T18:56:18.593Z,14.34
2022-10-28T18:58:49.079Z,14.18
2022-10-28T19:01:21.198Z,14.18
2022-10-28T19:03:55.461Z,14.20
2022-10-28T19:06:23.336Z,14.18
2022-10-28T19:08:53.376Z,14.20
2022-10-28T19:11:21.782Z,14.23
2022-10-28T19:13:48.776Z,14.25
2022-10-28T19:16:15.383Z,14.21
2022-10-28T19:18:41.931Z,14.21
2022-10-28T19:21:14.124Z,14.14
2022-10-28T19:23:41.608Z,14.19
2022-10-28T19:26:09.890Z,14.15
2022-10-28T19:28:42.029Z,14.10
2022-10-28T19:31:13.829Z,13.81
2022-10-28T19:33:43.049Z,13.89
2022-10-28T19:36:29.989Z,13.89
2022-10-28T19:38:57.878Z,13.99
2022-10-28T19:41:27.663Z,14.09
2022-10-28T19:44:02.959Z,14.12
2022-10-28T19:46:33.233Z,14.19
2022-10-28T19:49:03.853Z,14.04
2022-10-28T19:51:35.642Z,13.91
2022-10-28T19:54:11.406Z,13.93
2022-10-28T19:56:39.223Z,14.03
2022-10-28T19:59:06.739Z,14.07
2022-10-28T20:01:37.564Z,14.04
2022-10-28T20:04:04.951Z,14.13
2022-10-28T20:06:35.650Z,14.12
2022-10-28T20:09:02.998Z,14.18
2022-10-28T20:11:33.770Z,14.10
2022-10-28T20:14:08.803Z,13.96
2022-10-28T20:16:36.000Z,13.80
2022-10-28T20:19:02.548Z,13.82
2022-10-28T20:21:33.172Z,13.84
2022-10-28T20:24:00.612Z,13.74
2022-10-28T20:26:30.337Z,13.74
2022-10-28T20:28:58.409Z,13.72
2022-10-28T20:31:28.941Z,13.69
2022-10-28T20:34:03.632Z,13.73
2022-10-28T20:36:48.359Z,13.55
2022-10-28T20:39:18.614Z,13.51
2022-10-28T20:41:47.888Z,13.58
2022-10-28T20:44:15.496Z,13.57
2022-10-28T20:46:44.854Z,13.65
2022-10-28T20:49:13.027Z,13.52
2022-10-28T20:51:39.811Z,13.47
2022-10-28T20:54:06.887Z,13.55
2022-10-28T20:56:36.331Z,13.57
2022-10-28T20:59:03.445Z,13.53
2022-10-28T21:01:34.619Z,13.56
2022-10-28T21:04:06.433Z,13.47
2022-10-28T21:06:33.520Z,13.43
2022-10-28T21:09:00.234Z,13.44
2022-10-28T21:11:28.677Z,13.42
2022-10-28T21:14:01.114Z,13.37
2022-10-28T21:16:29.379Z,13.41
2022-10-28T21:18:56.345Z,13.43
2022-10-28T21:21:24.943Z,13.29
2022-10-28T21:23:52.256Z,13.16
2022-10-28T21:26:19.041Z,13.15
2022-10-28T21:28:50.390Z,13.12
2022-10-28T21:31:18.119Z,13.04
2022-10-28T21:33:45.479Z,12.99
2022-10-28T21:36:19.383Z,12.99
2022-10-28T21:38:46.357Z,12.99
2022-10-28T21:41:19.916Z,13.01
2022-10-28T21:43:49.930Z,13.04
2022-10-28T21:46:18.565Z,13.02
2022-10-28T21:48:45.807Z,12.99
2022-10-28T21:51:15.646Z,12.86
2022-10-28T21:53:44.055Z,12.84
2022-10-28T21:56:18.883Z,12.86
2022-10-28T21:58:48.607Z,12.89
2022-10-28T22:01:20.318Z,12.93
2022-10-28T22:03:47.416Z,12.98
2022-10-28T22:06:14.655Z,12.81
2022-10-28T22:08:41.612Z,12.77
2022-10-28T22:11:18.100Z,12.70
2022-10-28T22:13:44.877Z,12.36
2022-10-28T22:16:15.385Z,12.61
2022-10-28T22:18:42.786Z,12.68
2022-10-28T22:21:24.371Z,12.62
2022-10-28T22:23:52.545Z,12.62
2022-10-28T22:26:25.917Z,12.62
2022-10-28T22:28:53.015Z,12.68
2022-10-28T22:31:23.324Z,12.70
2022-10-28T22:33:51.083Z,12.64
2022-10-28T22:36:21.180Z,12.59
2022-10-28T22:38:48.629Z,12.54
2022-10-28T22:41:17.674Z,12.53
2022-10-28T22:43:49.101Z,12.48
2022-10-28T22:46:16.973Z,12.44
2022-10-28T22:48:44.549Z,12.43
2022-10-28T22:51:11.465Z,12.43
2022-10-28T22:53:39.587Z,12.18
2022-10-28T22:56:08.555Z,12.02
2022-10-28T22:58:35.057Z,11.89
2022-10-28T23:01:11.515Z,11.79
2022-10-28T23:03:40.246Z,11.45
2022-10-28T23:06:08.586Z,11.73
2022-10-28T23:08:36.799Z,11.89
2022-10-28T23:11:03.592Z,12.01
2022-10-28T23:13:30.070Z,12.12
2022-10-28T23:15:56.556Z,12.21
2022-10-28T23:18:27.937Z,12.24
2022-10-28T23:20:54.377Z,12.17
2022-10-28T23:23:21.131Z,12.06
2022-10-28T23:25:54.392Z,11.96
2022-10-28T23:28:21.494Z,11.99
2022-10-28T23:30:47.969Z,12.00
2022-10-28T23:33:14.880Z,11.96
2022-10-28T23:35:44.283Z,11.99
2022-10-28T23:38:16.381Z,12.00
2022-10-28T23:40:42.845Z,12.06
2022-10-28T23:43:09.336Z,12.07
2022-10-28T23:45:35.759Z,11.97
2022-10-28T23:48:02.175Z,11.85
2022-10-28T23:50:28.670Z,11.86
2022-10-28T23:52:55.697Z,11.79
2022-10-28T23:55:22.361Z,11.82
2022-10-28T23:57:48.800Z,11.87
